Alderson, OK

6:30 PM CST on January 31, 2015 (GMT -0600)
Kinkead Hills | Change Station
CLOSE
Current Station
Personal Weather Station
Location: McAlester, OK
Elevation: 808 ft
Nearby Weather Stations

Elev 808 ft 34.90 °N, 95.73 °W | Updated 11 minutes ago

Rain
Rain
45.4 °F
Feels Like 45 °F
N
0.0
Wind Variable Wind from ESE

Today
High -- | Low -- °F
--% Chance of Precip.
Yesterday
High -- | Low -- °F
Precip. -- in
7:22 AM 5:50 PM
Waxing Gibbous, 92% visible
Pressure 30.00 in
Visibility 6.0 miles
Clouds Scattered Clouds 3100 ft
Mostly Cloudy 4400 ft
Overcast 11000 ft
Windchill 45 °F
Dew Point 40 °F
Humidity 81%
Rainfall 0.02 in
Snow Depth Not available.
UV 0 out of 12
Pollen 3.60 out of 12
Air Quality Not available.
Flu Activity Not available.
METAR KMLC 312353Z AUTO 13005KT 6SM -RA SCT031 BKN044 OVC110 09/03 A3000 RMK AO2 RAB33 SLP157 P0001 60001 T00890028 10111 20089 58019

More Conditions Fewer Conditions

Pressure 30.00 in
Visibility 6.0 miles
Clouds Scattered Clouds 3100 ft
Mostly Cloudy 4400 ft
Overcast 11000 ft
Windchill 45 °F
Dew Point 40 °F
Humidity 81%
Rainfall 0.02 in
Snow Depth Not available.
UV 0 out of 12
Pollen 3.60 out of 12
Air Quality Not available.
Flu Activity Not available.
METAR KMLC 312353Z AUTO 13005KT 6SM -RA SCT031 BKN044 OVC110 09/03 A3000 RMK AO2 RAB33 SLP157 P0001 60001 T00890028 10111 20089 58019

More Conditions Fewer Conditions

10-Day Weather Forecast

Almanac

Astronomy

Jan. 31, 2015 Rise Set
Actual Time
Civil Twilight
Nautical Twilight
Astronomical Twilight
Moon
Length of Visible Light
Length of Day
Tomorrow will be .
, % of the Moon is Illuminated

Today's Extremes

State Highs State Lows

Community

WunderPhotos

Upload Photos

1,792,262 photos uploaded!

WunderBlogs® & News

Nearby

Air Quality

  Air Quality AQ Index Pollutant
Not available.

Snow Depth

Station Depth Elevation

Earthquake Activity

City Distance Mag. Time & Date
Minimum magnitude displayed is 2.5.

Coastal Water Temperatures

Place Temperature

Nearby Weather Stations